sensor_id;sensor_type;location;lat;lon;timestamp;pressure;altitude;pressure_sealevel;temperature;humidity
61478;BME280;47345;52.334;10.392;2023-02-13T00:00:38;103102.52;;;7.44;93.42
61478;BME280;47345;52.334;10.392;2023-02-13T00:03:14;103103.52;;;7.44;93.57
61478;BME280;47345;52.334;10.392;2023-02-13T00:05:53;103100.47;;;7.43;93.23
61478;BME280;47345;52.334;10.392;2023-02-13T00:08:28;103099.03;;;7.43;93.38
61478;BME280;47345;52.334;10.392;2023-02-13T00:11:11;103099.55;;;7.43;93.45
61478;BME280;47345;52.334;10.392;2023-02-13T00:13:44;103106.21;;;7.43;93.46
61478;BME280;47345;52.334;10.392;2023-02-13T00:16:18;103101.63;;;7.42;93.41
61478;BME280;47345;52.334;10.392;2023-02-13T00:18:54;103099.70;;;7.41;93.42
61478;BME280;47345;52.334;10.392;2023-02-13T00:21:35;103104.17;;;7.40;93.35
61478;BME280;47345;52.334;10.392;2023-02-13T00:24:05;103106.20;;;7.39;93.43
61478;BME280;47345;52.334;10.392;2023-02-13T00:26:40;103101.50;;;7.39;93.65
61478;BME280;47345;52.334;10.392;2023-02-13T00:29:17;103096.55;;;7.39;93.66
61478;BME280;47345;52.334;10.392;2023-02-13T00:31:48;103096.48;;;7.40;93.75
61478;BME280;47345;52.334;10.392;2023-02-13T00:34:29;103096.13;;;7.41;93.84
61478;BME280;47345;52.334;10.392;2023-02-13T00:37:00;103094.52;;;7.40;93.85
61478;BME280;47345;52.334;10.392;2023-02-13T00:39:32;103091.32;;;7.39;93.91
61478;BME280;47345;52.334;10.392;2023-02-13T00:42:04;103095.22;;;7.38;93.71
61478;BME280;47345;52.334;10.392;2023-02-13T00:44:37;103098.86;;;7.38;93.93
61478;BME280;47345;52.334;10.392;2023-02-13T00:47:17;103101.81;;;7.38;93.82
61478;BME280;47345;52.334;10.392;2023-02-13T00:49:52;103107.55;;;7.38;93.95
61478;BME280;47345;52.334;10.392;2023-02-13T00:52:26;103107.42;;;7.38;93.69
61478;BME280;47345;52.334;10.392;2023-02-13T00:55:01;103113.36;;;7.36;93.70
61478;BME280;47345;52.334;10.392;2023-02-13T00:57:40;103105.62;;;7.35;93.67
61478;BME280;47345;52.334;10.392;2023-02-13T01:00:16;103105.13;;;7.35;93.65
61478;BME280;47345;52.334;10.392;2023-02-13T01:02:58;103098.23;;;7.34;93.65
61478;BME280;47345;52.334;10.392;2023-02-13T01:05:29;103097.65;;;7.33;93.67
61478;BME280;47345;52.334;10.392;2023-02-13T01:08:08;103097.83;;;7.31;93.71
61478;BME280;47345;52.334;10.392;2023-02-13T01:10:42;103099.63;;;7.31;93.88
61478;BME280;47345;52.334;10.392;2023-02-13T01:13:31;103093.98;;;7.31;93.76
61478;BME280;47345;52.334;10.392;2023-02-13T01:16:03;103089.31;;;7.30;93.92
61478;BME280;47345;52.334;10.392;2023-02-13T01:18:38;103089.34;;;7.30;93.80
61478;BME280;47345;52.334;10.392;2023-02-13T01:21:16;103083.82;;;7.29;93.76
61478;BME280;47345;52.334;10.392;2023-02-13T01:24:07;103077.31;;;7.29;93.94
61478;BME280;47345;52.334;10.392;2023-02-13T01:26:40;103074.36;;;7.29;93.95
61478;BME280;47345;52.334;10.392;2023-02-13T01:29:13;103073.16;;;7.28;93.98
61478;BME280;47345;52.334;10.392;2023-02-13T01:31:45;103073.08;;;7.29;93.94
61478;BME280;47345;52.334;10.392;2023-02-13T01:34:19;103070.55;;;7.29;93.87
61478;BME280;47345;52.334;10.392;2023-02-13T01:36:55;103074.02;;;7.29;93.85
61478;BME280;47345;52.334;10.392;2023-02-13T01:39:26;103070.92;;;7.29;93.95
61478;BME280;47345;52.334;10.392;2023-02-13T01:44:50;103066.92;;;7.27;93.42
61478;BME280;47345;52.334;10.392;2023-02-13T01:47:27;103064.95;;;7.24;93.49
61478;BME280;47345;52.334;10.392;2023-02-13T01:50:10;103065.42;;;7.23;93.37
61478;BME280;47345;52.334;10.392;2023-02-13T01:52:56;103064.59;;;7.22;93.36
61478;BME280;47345;52.334;10.392;2023-02-13T01:55:36;103064.19;;;7.23;93.48
61478;BME280;47345;52.334;10.392;2023-02-13T01:58:12;103060.50;;;7.23;93.45
61478;BME280;47345;52.334;10.392;2023-02-13T02:00:50;103059.92;;;7.24;93.53
61478;BME280;47345;52.334;10.392;2023-02-13T02:03:24;103054.94;;;7.25;93.42
61478;BME280;47345;52.334;10.392;2023-02-13T02:06:00;103055.84;;;7.25;93.62
61478;BME280;47345;52.334;10.392;2023-02-13T02:08:33;103052.15;;;7.26;93.45
61478;BME280;47345;52.334;10.392;2023-02-13T02:11:17;103051.60;;;7.26;93.56
61478;BME280;47345;52.334;10.392;2023-02-13T02:14:01;103052.42;;;7.27;93.59
61478;BME280;47345;52.334;10.392;2023-02-13T02:16:34;103050.36;;;7.28;93.74
61478;BME280;47345;52.334;10.392;2023-02-13T02:19:12;103048.31;;;7.28;93.42
61478;BME280;47345;52.334;10.392;2023-02-13T02:34:48;103051.02;;;7.24;92.91
61478;BME280;47345;52.334;10.392;2023-02-13T02:37:42;103049.47;;;7.23;93.02
61478;BME280;47345;52.334;10.392;2023-02-13T02:40:25;103052.01;;;7.23;93.03
61478;BME280;47345;52.334;10.392;2023-02-13T02:43:17;103055.05;;;7.23;93.24
61478;BME280;47345;52.334;10.392;2023-02-13T02:46:07;103045.17;;;7.24;93.13
61478;BME280;47345;52.334;10.392;2023-02-13T02:48:55;103038.65;;;7.24;93.02
61478;BME280;47345;52.334;10.392;2023-02-13T02:52:00;103033.73;;;7.24;93.36
61478;BME280;47345;52.334;10.392;2023-02-13T02:54:47;103031.39;;;7.24;93.24
61478;BME280;47345;52.334;10.392;2023-02-13T02:57:43;103033.86;;;7.25;93.49
61478;BME280;47345;52.334;10.392;2023-02-13T03:00:44;103028.32;;;7.24;93.31
61478;BME280;47345;52.334;10.392;2023-02-13T03:03:38;103024.32;;;7.24;93.35
61478;BME280;47345;52.334;10.392;2023-02-13T03:06:35;103029.20;;;7.24;93.24
61478;BME280;47345;52.334;10.392;2023-02-13T03:09:13;103024.08;;;7.25;93.32
61478;BME280;47345;52.334;10.392;2023-02-13T03:12:09;103019.02;;;7.22;93.03
61478;BME280;47345;52.334;10.392;2023-02-13T03:15:09;103025.02;;;7.24;93.07
61478;BME280;47345;52.334;10.392;2023-02-13T03:17:43;103028.73;;;7.23;92.96
61478;BME280;47345;52.334;10.392;2023-02-13T03:20:41;103028.97;;;7.23;92.81
61478;BME280;47345;52.334;10.392;2023-02-13T03:23:50;103031.16;;;7.20;92.50
61478;BME280;47345;52.334;10.392;2023-02-13T03:26:47;103030.92;;;7.19;92.88
61478;BME280;47345;52.334;10.392;2023-02-13T03:29:36;103030.45;;;7.18;92.83
61478;BME280;47345;52.334;10.392;2023-02-13T03:32:34;103025.38;;;7.18;93.02
61478;BME280;47345;52.334;10.392;2023-02-13T03:35:21;103022.23;;;7.19;93.37
61478;BME280;47345;52.334;10.392;2023-02-13T03:38:26;103023.21;;;7.20;93.32
61478;BME280;47345;52.334;10.392;2023-02-13T03:41:17;103024.61;;;7.20;93.48
61478;BME280;47345;52.334;10.392;2023-02-13T03:44:00;103024.05;;;7.21;93.47
61478;BME280;47345;52.334;10.392;2023-02-13T03:46:45;103025.11;;;7.21;93.39
61478;BME280;47345;52.334;10.392;2023-02-13T03:49:22;103026.55;;;7.21;93.34
61478;BME280;47345;52.334;10.392;2023-02-13T03:52:18;103029.74;;;7.22;93.40
61478;BME280;47345;52.334;10.392;2023-02-13T03:55:08;103027.51;;;7.23;93.64
61478;BME280;47345;52.334;10.392;2023-02-13T03:58:03;103031.92;;;7.22;93.44
61478;BME280;47345;52.334;10.392;2023-02-13T04:00:57;103031.64;;;7.23;93.44
61478;BME280;47345;52.334;10.392;2023-02-13T04:03:39;103031.64;;;7.23;93.25
61478;BME280;47345;52.334;10.392;2023-02-13T04:06:22;103035.33;;;7.23;93.26
61478;BME280;47345;52.334;10.392;2023-02-13T04:09:01;103034.84;;;7.22;93.10
61478;BME280;47345;52.334;10.392;2023-02-13T04:11:36;103034.21;;;7.23;93.20
61478;BME280;47345;52.334;10.392;2023-02-13T04:14:18;103035.21;;;7.22;93.24
61478;BME280;47345;52.334;10.392;2023-02-13T04:16:55;103033.01;;;7.22;93.29
61478;BME280;47345;52.334;10.392;2023-02-13T04:19:32;103033.33;;;7.23;93.38
61478;BME280;47345;52.334;10.392;2023-02-13T04:22:04;103031.10;;;7.23;93.20
61478;BME280;47345;52.334;10.392;2023-02-13T04:24:36;103027.52;;;7.23;93.15
61478;BME280;47345;52.334;10.392;2023-02-13T04:27:14;103020.25;;;7.23;93.10
61478;BME280;47345;52.334;10.392;2023-02-13T04:29:52;103019.45;;;7.21;93.14
61478;BME280;47345;52.334;10.392;2023-02-13T04:32:27;103021.36;;;7.20;93.14
61478;BME280;47345;52.334;10.392;2023-02-13T04:35:02;103020.48;;;7.20;93.23
61478;BME280;47345;52.334;10.392;2023-02-13T04:37:43;103022.14;;;7.20;93.05
61478;BME280;47345;52.334;10.392;2023-02-13T04:40:16;103018.36;;;7.19;93.13
61478;BME280;47345;52.334;10.392;2023-02-13T04:42:49;103017.88;;;7.19;93.18
61478;BME280;47345;52.334;10.392;2023-02-13T04:45:29;103014.19;;;7.19;93.24
61478;BME280;47345;52.334;10.392;2023-02-13T04:48:01;103014.58;;;7.19;93.16
61478;BME280;47345;52.334;10.392;2023-02-13T04:50:37;103013.16;;;7.19;93.22
61478;BME280;47345;52.334;10.392;2023-02-13T04:53:12;103015.66;;;7.19;93.14
61478;BME280;47345;52.334;10.392;2023-02-13T04:55:45;103009.78;;;7.18;93.02
61478;BME280;47345;52.334;10.392;2023-02-13T04:58:21;103009.29;;;7.17;93.02
61478;BME280;47345;52.334;10.392;2023-02-13T05:00:52;103010.67;;;7.16;92.86
61478;BME280;47345;52.334;10.392;2023-02-13T05:03:28;103011.05;;;7.16;92.88
61478;BME280;47345;52.334;10.392;2023-02-13T05:06:04;103011.32;;;7.17;93.05
61478;BME280;47345;52.334;10.392;2023-02-13T05:08:37;103018.30;;;7.18;93.14
61478;BME280;47345;52.334;10.392;2023-02-13T05:11:17;103017.55;;;7.18;93.04
61478;BME280;47345;52.334;10.392;2023-02-13T05:13:53;103013.96;;;7.18;93.11
61478;BME280;47345;52.334;10.392;2023-02-13T05:16:27;103016.80;;;7.18;92.93
61478;BME280;47345;52.334;10.392;2023-02-13T05:19:02;103016.27;;;7.18;92.76
61478;BME280;47345;52.334;10.392;2023-02-13T05:21:33;103014.78;;;7.17;92.82
61478;BME280;47345;52.334;10.392;2023-02-13T05:24:22;103015.37;;;7.14;92.68
61478;BME280;47345;52.334;10.392;2023-02-13T05:26:59;103022.14;;;7.18;92.91
61478;BME280;47345;52.334;10.392;2023-02-13T05:29:30;103024.73;;;7.17;92.64
61478;BME280;47345;52.334;10.392;2023-02-13T05:32:01;103024.33;;;7.17;92.97
61478;BME280;47345;52.334;10.392;2023-02-13T05:34:32;103025.15;;;7.18;92.84
61478;BME280;47345;52.334;10.392;2023-02-13T05:37:08;103028.21;;;7.19;92.97
61478;BME280;47345;52.334;10.392;2023-02-13T05:39:46;103025.46;;;7.19;92.84
61478;BME280;47345;52.334;10.392;2023-02-13T05:42:24;103030.84;;;7.18;92.56
61478;BME280;47345;52.334;10.392;2023-02-13T05:45:00;103025.70;;;7.16;92.44
61478;BME280;47345;52.334;10.392;2023-02-13T05:47:34;103022.11;;;7.16;92.45
61478;BME280;47345;52.334;10.392;2023-02-13T05:50:09;103028.84;;;7.16;92.54
61478;BME280;47345;52.334;10.392;2023-02-13T05:52:42;103032.30;;;7.15;92.51
61478;BME280;47345;52.334;10.392;2023-02-13T05:58:08;103036.69;;;7.15;92.43
61478;BME280;47345;52.334;10.392;2023-02-13T06:00:45;103029.12;;;7.14;92.40
61478;BME280;47345;52.334;10.392;2023-02-13T06:03:24;103028.77;;;7.14;92.16
61478;BME280;47345;52.334;10.392;2023-02-13T06:05:58;103029.59;;;7.13;92.22
61478;BME280;47345;52.334;10.392;2023-02-13T06:08:29;103028.58;;;7.12;91.94
61478;BME280;47345;52.334;10.392;2023-02-13T06:11:08;103027.05;;;7.11;91.93
61478;BME280;47345;52.334;10.392;2023-02-13T06:13:40;103028.04;;;7.10;91.98
61478;BME280;47345;52.334;10.392;2023-02-13T06:16:13;103031.95;;;7.08;91.96
61478;BME280;47345;52.334;10.392;2023-02-13T06:18:46;103032.92;;;7.08;92.31
61478;BME280;47345;52.334;10.392;2023-02-13T06:21:24;103035.86;;;7.07;92.31
61478;BME280;47345;52.334;10.392;2023-02-13T06:24:03;103037.24;;;7.08;92.23
61478;BME280;47345;52.334;10.392;2023-02-13T06:26:38;103044.45;;;7.07;92.29
61478;BME280;47345;52.334;10.392;2023-02-13T06:29:10;103050.91;;;7.05;92.35
61478;BME280;47345;52.334;10.392;2023-02-13T06:31:45;103051.08;;;7.06;92.34
61478;BME280;47345;52.334;10.392;2023-02-13T06:34:17;103052.10;;;7.06;92.48
61478;BME280;47345;52.334;10.392;2023-02-13T06:36:49;103059.30;;;7.07;92.15
61478;BME280;47345;52.334;10.392;2023-02-13T06:39:33;103060.53;;;7.07;92.40
61478;BME280;47345;52.334;10.392;2023-02-13T06:42:09;103057.36;;;7.08;92.35
61478;BME280;47345;52.334;10.392;2023-02-13T06:44:39;103060.40;;;7.09;92.32
61478;BME280;47345;52.334;10.392;2023-02-13T06:47:18;103057.86;;;7.09;92.18
61478;BME280;47345;52.334;10.392;2023-02-13T06:49:49;103060.38;;;7.09;92.24
61478;BME280;47345;52.334;10.392;2023-02-13T06:52:22;103061.13;;;7.09;92.26
61478;BME280;47345;52.334;10.392;2023-02-13T06:55:06;103071.09;;;7.09;92.13
61478;BME280;47345;52.334;10.392;2023-02-13T06:57:46;103075.00;;;7.08;92.01
61478;BME280;47345;52.334;10.392;2023-02-13T07:00:25;103067.75;;;7.07;92.06
61478;BME280;47345;52.334;10.392;2023-02-13T07:03:08;103069.53;;;7.08;92.01
61478;BME280;47345;52.334;10.392;2023-02-13T07:05:41;103067.23;;;7.07;92.03
61478;BME280;47345;52.334;10.392;2023-02-13T07:08:13;103071.02;;;7.08;91.92
61478;BME280;47345;52.334;10.392;2023-02-13T07:10:44;103073.66;;;7.08;92.33
61478;BME280;47345;52.334;10.392;2023-02-13T07:13:19;103073.24;;;7.09;91.90
61478;BME280;47345;52.334;10.392;2023-02-13T07:15:58;103077.88;;;7.11;92.16
61478;BME280;47345;52.334;10.392;2023-02-13T07:18:32;103078.11;;;7.12;92.29
61478;BME280;47345;52.334;10.392;2023-02-13T07:21:02;103073.55;;;7.13;91.94
61478;BME280;47345;52.334;10.392;2023-02-13T07:23:34;103075.43;;;7.12;91.95
61478;BME280;47345;52.334;10.392;2023-02-13T07:26:11;103075.98;;;7.12;91.96
61478;BME280;47345;52.334;10.392;2023-02-13T07:28:49;103072.30;;;7.12;92.15
61478;BME280;47345;52.334;10.392;2023-02-13T07:31:41;103075.59;;;7.12;92.13
61478;BME280;47345;52.334;10.392;2023-02-13T07:34:18;103078.41;;;7.13;91.94
61478;BME280;47345;52.334;10.392;2023-02-13T07:36:49;103080.49;;;7.14;91.97
61478;BME280;47345;52.334;10.392;2023-02-13T07:39:19;103081.36;;;7.15;92.08
61478;BME280;47345;52.334;10.392;2023-02-13T07:41:51;103082.21;;;7.15;91.72
61478;BME280;47345;52.334;10.392;2023-02-13T07:44:35;103087.39;;;7.16;91.93
61478;BME280;47345;52.334;10.392;2023-02-13T07:47:14;103089.45;;;7.18;91.90
61478;BME280;47345;52.334;10.392;2023-02-13T07:49:54;103090.28;;;7.19;91.82
61478;BME280;47345;52.334;10.392;2023-02-13T07:52:30;103089.24;;;7.20;91.83
61478;BME280;47345;52.334;10.392;2023-02-13T07:55:11;103089.23;;;7.20;91.90
61478;BME280;47345;52.334;10.392;2023-02-13T07:57:47;103096.23;;;7.23;91.86
61478;BME280;47345;52.334;10.392;2023-02-13T08:00:26;103102.39;;;7.26;91.90
61478;BME280;47345;52.334;10.392;2023-02-13T08:03:03;103097.42;;;7.27;91.77
61478;BME280;47345;52.334;10.392;2023-02-13T08:05:39;103100.81;;;7.28;91.66
61478;BME280;47345;52.334;10.392;2023-02-13T08:08:18;103104.95;;;7.28;91.69
61478;BME280;47345;52.334;10.392;2023-02-13T08:10:49;103104.31;;;7.29;91.89
61478;BME280;47345;52.334;10.392;2023-02-13T08:13:35;103107.80;;;7.31;91.52
61478;BME280;47345;52.334;10.392;2023-02-13T08:16:10;103110.55;;;7.33;91.67
61478;BME280;47345;52.334;10.392;2023-02-13T08:18:42;103107.84;;;7.35;91.58
61478;BME280;47345;52.334;10.392;2023-02-13T08:21:20;103106.21;;;7.37;91.81
61478;BME280;47345;52.334;10.392;2023-02-13T08:23:58;103113.23;;;7.40;91.79
61478;BME280;47345;52.334;10.392;2023-02-13T08:26:41;103118.13;;;7.42;91.85
61478;BME280;47345;52.334;10.392;2023-02-13T08:29:17;103111.60;;;7.44;91.77
61478;BME280;47345;52.334;10.392;2023-02-13T08:31:52;103111.48;;;7.48;91.83
61478;BME280;47345;52.334;10.392;2023-02-13T08:34:23;103106.83;;;7.49;91.68
61478;BME280;47345;52.334;10.392;2023-02-13T08:36:55;103107.41;;;7.51;91.77
61478;BME280;47345;52.334;10.392;2023-02-13T08:39:29;103104.84;;;7.51;91.76
61478;BME280;47345;52.334;10.392;2023-02-13T08:42:00;103107.19;;;7.53;91.72
61478;BME280;47345;52.334;10.392;2023-02-13T08:44:33;103107.38;;;7.56;91.75
61478;BME280;47345;52.334;10.392;2023-02-13T08:47:10;103106.48;;;7.58;91.68
61478;BME280;47345;52.334;10.392;2023-02-13T08:49:41;103104.94;;;7.59;91.43
61478;BME280;47345;52.334;10.392;2023-02-13T08:52:15;103106.28;;;7.58;91.46
61478;BME280;47345;52.334;10.392;2023-02-13T08:54:49;103104.77;;;7.63;91.72
61478;BME280;47345;52.334;10.392;2023-02-13T08:57:29;103099.55;;;7.65;91.49
61478;BME280;47345;52.334;10.392;2023-02-13T09:00:03;103102.75;;;7.67;91.45
61478;BME280;47345;52.334;10.392;2023-02-13T09:02:34;103106.41;;;7.69;91.30
61478;BME280;47345;52.334;10.392;2023-02-13T09:05:08;103103.45;;;7.72;91.37
61478;BME280;47345;52.334;10.392;2023-02-13T09:07:41;103101.77;;;7.75;91.10
61478;BME280;47345;52.334;10.392;2023-02-13T09:10:20;103110.70;;;7.77;91.03
61478;BME280;47345;52.334;10.392;2023-02-13T09:12:55;103111.42;;;7.79;90.99
61478;BME280;47345;52.334;10.392;2023-02-13T09:15:27;103114.48;;;7.81;90.89
61478;BME280;47345;52.334;10.392;2023-02-13T09:18:01;103117.45;;;7.85;90.82
61478;BME280;47345;52.334;10.392;2023-02-13T09:20:49;103111.64;;;7.87;90.64
61478;BME280;47345;52.334;10.392;2023-02-13T09:23:31;103112.95;;;7.89;90.61
61478;BME280;47345;52.334;10.392;2023-02-13T09:26:11;103108.73;;;7.92;90.77
61478;BME280;47345;52.334;10.392;2023-02-13T09:28:50;103111.15;;;7.95;90.55
61478;BME280;47345;52.334;10.392;2023-02-13T09:31:31;103108.70;;;7.98;90.48
61478;BME280;47345;52.334;10.392;2023-02-13T09:34:10;103108.99;;;8.01;90.38
61478;BME280;47345;52.334;10.392;2023-02-13T09:36:47;103104.88;;;8.05;90.41
61478;BME280;47345;52.334;10.392;2023-02-13T09:39:20;103106.55;;;8.06;90.15
61478;BME280;47345;52.334;10.392;2023-02-13T09:41:54;103107.82;;;8.09;90.06
61478;BME280;47345;52.334;10.392;2023-02-13T09:44:42;103108.70;;;8.11;90.03
61478;BME280;47345;52.334;10.392;2023-02-13T09:47:18;103108.38;;;8.12;89.91
61478;BME280;47345;52.334;10.392;2023-02-13T09:49:54;103103.77;;;8.16;89.91
61478;BME280;47345;52.334;10.392;2023-02-13T09:52:30;103100.87;;;8.18;89.58
61478;BME280;47345;52.334;10.392;2023-02-13T09:55:16;103100.44;;;8.18;89.71
61478;BME280;47345;52.334;10.392;2023-02-13T09:57:53;103099.77;;;8.20;89.65
61478;BME280;47345;52.334;10.392;2023-02-13T10:00:41;103106.37;;;8.21;89.53
61478;BME280;47345;52.334;10.392;2023-02-13T10:03:28;103108.48;;;8.22;89.22
61478;BME280;47345;52.334;10.392;2023-02-13T10:06:17;103112.19;;;8.23;89.26
61478;BME280;47345;52.334;10.392;2023-02-13T10:09:07;103112.58;;;8.25;89.61
61478;BME280;47345;52.334;10.392;2023-02-13T10:11:58;103117.35;;;8.29;89.33
61478;BME280;47345;52.334;10.392;2023-02-13T10:14:48;103122.80;;;8.31;89.38
61478;BME280;47345;52.334;10.392;2023-02-13T10:17:27;103122.59;;;8.34;89.15
61478;BME280;47345;52.334;10.392;2023-02-13T10:20:09;103123.42;;;8.36;88.91
61478;BME280;47345;52.334;10.392;2023-02-13T10:22:55;103129.91;;;8.39;88.79
61478;BME280;47345;52.334;10.392;2023-02-13T10:25:47;103123.30;;;8.42;88.67
61478;BME280;47345;52.334;10.392;2023-02-13T10:28:33;103122.48;;;8.45;88.53
61478;BME280;47345;52.334;10.392;2023-02-13T10:31:11;103120.21;;;8.49;88.55
61478;BME280;47345;52.334;10.392;2023-02-13T10:34:05;103120.04;;;8.51;88.33
61478;BME280;47345;52.334;10.392;2023-02-13T10:36:44;103117.05;;;8.53;88.18
61478;BME280;47345;52.334;10.392;2023-02-13T10:39:24;103112.40;;;8.55;88.10
61478;BME280;47345;52.334;10.392;2023-02-13T10:42:10;103113.13;;;8.57;88.16
61478;BME280;47345;52.334;10.392;2023-02-13T10:44:59;103113.02;;;8.60;88.06
61478;BME280;47345;52.334;10.392;2023-02-13T10:47:47;103117.77;;;8.62;87.78
61478;BME280;47345;52.334;10.392;2023-02-13T10:50:33;103113.77;;;8.62;87.86
61478;BME280;47345;52.334;10.392;2023-02-13T10:53:14;103116.45;;;8.65;87.90
61478;BME280;47345;52.334;10.392;2023-02-13T10:56:19;103119.31;;;8.65;87.60
61478;BME280;47345;52.334;10.392;2023-02-13T10:59:10;103119.55;;;8.67;87.51
61478;BME280;47345;52.334;10.392;2023-02-13T11:01:50;103119.90;;;8.67;87.32
61478;BME280;47345;52.334;10.392;2023-02-13T11:04:24;103114.58;;;8.70;87.51
61478;BME280;47345;52.334;10.392;2023-02-13T11:07:02;103117.02;;;8.71;87.41
61478;BME280;47345;52.334;10.392;2023-02-13T11:09:41;103110.77;;;8.74;87.31
61478;BME280;47345;52.334;10.392;2023-02-13T11:12:28;103107.48;;;8.76;87.01
61478;BME280;47345;52.334;10.392;2023-02-13T11:15:18;103105.52;;;8.77;86.72
61478;BME280;47345;52.334;10.392;2023-02-13T11:18:10;103101.27;;;8.80;86.96
61478;BME280;47345;52.334;10.392;2023-02-13T11:20:47;103100.27;;;8.83;86.86
61478;BME280;47345;52.334;10.392;2023-02-13T11:23:45;103101.92;;;8.87;86.81
61478;BME280;47345;52.334;10.392;2023-02-13T11:26:30;103100.17;;;8.91;86.45
61478;BME280;47345;52.334;10.392;2023-02-13T11:29:17;103099.72;;;8.91;86.35
61478;BME280;47345;52.334;10.392;2023-02-13T11:32:06;103105.27;;;8.97;86.09
61478;BME280;47345;52.334;10.392;2023-02-13T11:34:45;103104.26;;;9.00;86.30
61478;BME280;47345;52.334;10.392;2023-02-13T11:37:22;103094.80;;;9.04;86.18
61478;BME280;47345;52.334;10.392;2023-02-13T11:40:02;103090.65;;;9.07;86.03
61478;BME280;47345;52.334;10.392;2023-02-13T11:42:52;103092.75;;;9.12;85.92
61478;BME280;47345;52.334;10.392;2023-02-13T11:45:25;103088.48;;;9.15;85.54
61478;BME280;47345;52.334;10.392;2023-02-13T11:48:20;103086.67;;;9.19;85.45
61478;BME280;47345;52.334;10.392;2023-02-13T11:51:01;103086.23;;;9.22;85.01
61478;BME280;47345;52.334;10.392;2023-02-13T11:53:48;103088.54;;;9.25;84.91
61478;BME280;47345;52.334;10.392;2023-02-13T11:56:20;103088.53;;;9.27;84.62
61478;BME280;47345;52.334;10.392;2023-02-13T11:59:00;103087.98;;;9.29;84.43
61478;BME280;47345;52.334;10.392;2023-02-13T12:01:37;103088.08;;;9.32;84.36
61478;BME280;47345;52.334;10.392;2023-02-13T12:04:16;103083.03;;;9.33;84.27
61478;BME280;47345;52.334;10.392;2023-02-13T12:07:03;103082.98;;;9.35;84.36
61478;BME280;47345;52.334;10.392;2023-02-13T12:09:42;103079.73;;;9.37;84.17
61478;BME280;47345;52.334;10.392;2023-02-13T12:12:21;103075.31;;;9.40;83.95
61478;BME280;47345;52.334;10.392;2023-02-13T12:15:09;103071.62;;;9.42;83.92
61478;BME280;47345;52.334;10.392;2023-02-13T12:17:51;103072.20;;;9.44;83.30
61478;BME280;47345;52.334;10.392;2023-02-13T12:20:34;103072.98;;;9.45;83.16
61478;BME280;47345;52.334;10.392;2023-02-13T12:23:29;103061.80;;;9.48;83.23
61478;BME280;47345;52.334;10.392;2023-02-13T12:26:30;103060.55;;;9.54;83.32
61478;BME280;47345;52.334;10.392;2023-02-13T12:29:23;103057.21;;;9.58;83.28
61478;BME280;47345;52.334;10.392;2023-02-13T12:32:12;103056.27;;;9.63;83.13
61478;BME280;47345;52.334;10.392;2023-02-13T12:35:20;103055.83;;;9.67;83.04
61478;BME280;47345;52.334;10.392;2023-02-13T12:38:18;103046.34;;;9.71;82.79
61478;BME280;47345;52.334;10.392;2023-02-13T12:41:19;103047.73;;;9.74;82.60
61478;BME280;47345;52.334;10.392;2023-02-13T12:44:19;103048.58;;;9.77;82.07
61478;BME280;47345;52.334;10.392;2023-02-13T12:47:12;103043.95;;;9.78;81.74
61478;BME280;47345;52.334;10.392;2023-02-13T12:50:11;103046.08;;;9.78;81.48
61478;BME280;47345;52.334;10.392;2023-02-13T12:53:05;103043.90;;;9.80;81.59
61478;BME280;47345;52.334;10.392;2023-02-13T12:58:59;103038.59;;;9.80;81.00
61478;BME280;47345;52.334;10.392;2023-02-13T13:04:44;103038.94;;;9.81;81.15
61478;BME280;47345;52.334;10.392;2023-02-13T13:07:40;103033.15;;;9.84;80.91
61478;BME280;47345;52.334;10.392;2023-02-13T13:13:33;103030.92;;;9.88;80.75
61478;BME280;47345;52.334;10.392;2023-02-13T13:16:16;103033.40;;;9.89;80.83
61478;BME280;47345;52.334;10.392;2023-02-13T13:19:07;103033.34;;;9.89;80.57
61478;BME280;47345;52.334;10.392;2023-02-13T13:21:47;103034.17;;;9.90;80.54
61478;BME280;47345;52.334;10.392;2023-02-13T13:24:36;103036.36;;;9.90;80.43
61478;BME280;47345;52.334;10.392;2023-02-13T13:27:19;103033.64;;;9.90;80.40
61478;BME280;47345;52.334;10.392;2023-02-13T13:30:04;103031.33;;;9.89;80.36
61478;BME280;47345;52.334;10.392;2023-02-13T13:32:44;103026.02;;;9.90;80.25
61478;BME280;47345;52.334;10.392;2023-02-13T13:35:23;103024.25;;;9.89;80.21
61478;BME280;47345;52.334;10.392;2023-02-13T13:38:10;103022.09;;;9.89;80.08
61478;BME280;47345;52.334;10.392;2023-02-13T13:40:50;103017.11;;;9.88;80.04
61478;BME280;47345;52.334;10.392;2023-02-13T13:43:31;103018.65;;;9.87;79.85
61478;BME280;47345;52.334;10.392;2023-02-13T13:46:20;103020.19;;;9.86;79.71
61478;BME280;47345;52.334;10.392;2023-02-13T13:49:11;103018.08;;;9.85;79.74
61478;BME280;47345;52.334;10.392;2023-02-13T13:51:51;103016.11;;;9.85;79.84
61478;BME280;47345;52.334;10.392;2023-02-13T13:54:35;103016.30;;;9.84;79.85
61478;BME280;47345;52.334;10.392;2023-02-13T13:57:10;103016.05;;;9.83;79.65
61478;BME280;47345;52.334;10.392;2023-02-13T14:03:35;103012.21;;;9.82;79.59
61478;BME280;47345;52.334;10.392;2023-02-13T14:06:14;103005.99;;;9.80;79.90
61478;BME280;47345;52.334;10.392;2023-02-13T14:09:08;102999.09;;;9.80;79.85
61478;BME280;47345;52.334;10.392;2023-02-13T14:12:43;102995.20;;;9.79;79.31
61478;BME280;47345;52.334;10.392;2023-02-13T14:15:54;102993.71;;;9.77;79.57
61478;BME280;47345;52.334;10.392;2023-02-13T14:18:32;102992.01;;;9.76;79.61
61478;BME280;47345;52.334;10.392;2023-02-13T14:21:11;102988.30;;;9.74;79.48
61478;BME280;47345;52.334;10.392;2023-02-13T14:23:51;102987.52;;;9.73;79.58
61478;BME280;47345;52.334;10.392;2023-02-13T14:26:50;102983.55;;;9.72;79.73
61478;BME280;47345;52.334;10.392;2023-02-13T14:29:40;102987.33;;;9.69;79.63
61478;BME280;47345;52.334;10.392;2023-02-13T14:32:28;102991.33;;;9.68;79.77